Time;durP1;ratioP1;P1;durP2;ratioP2;P2;SDS_P1;SDS_P2;PMS_P1;PMS_P2;Temp;Humidity;BMP_temperature;BMP_pressure;BME280_temperature;BME280_humidity;BME280_pressure;Samples;Min_cycle;Max_cycle;Signal;HPM_P1;HPM_P2
2021/05/12 00:02:06;;;;;;;25.40;22.07;;;14.20;99.90;;;;;;4938631;29;20411;-71
2021/05/12 00:04:32;;;;;;;24.53;21.90;;;14.10;99.90;;;;;;4937497;29;20433;-71
2021/05/12 00:06:57;;;;;;;30.10;23.27;;;14.10;99.90;;;;;;4935885;29;20257;-71
2021/05/12 00:09:23;;;;;;;27.20;22.47;;;14.10;99.90;;;;;;4937395;28;20204;-71
2021/05/12 00:11:48;;;;;;;25.77;23.07;;;14.10;99.90;;;;;;4937913;29;20526;-71
2021/05/12 00:14:15;;;;;;;24.17;21.40;;;14.00;99.90;;;;;;4937233;29;20185;-71
2021/05/12 00:16:40;;;;;;;24.60;21.97;;;14.00;99.90;;;;;;4935757;29;20202;-71
2021/05/12 00:19:06;;;;;;;25.53;22.83;;;14.00;99.90;;;;;;4936984;29;20434;-71
2021/05/12 00:21:37;;;;;;;29.70;23.40;;;14.00;99.90;;;;;;4937553;29;20194;-71
2021/05/12 00:24:03;;;;;;;25.13;22.53;;;14.00;99.90;;;;;;4937281;29;20198;-71
2021/05/12 00:26:40;;;;;;;24.93;22.33;;;14.10;99.90;;;;;;4935786;29;20453;-71
2021/05/12 00:29:12;;;;;;;28.30;23.93;;;14.10;99.90;;;;;;4937483;29;20395;-72
2021/05/12 00:31:37;;;;;;;27.70;24.57;;;14.00;99.90;;;;;;4937475;29;20402;-71
2021/05/12 00:34:04;;;;;;;26.17;23.37;;;14.00;99.90;;;;;;4936194;29;20450;-71
2021/05/12 00:36:29;;;;;;;26.00;22.67;;;13.90;99.90;;;;;;4937968;29;20166;-71
2021/05/12 00:38:57;;;;;;;25.43;22.73;;;13.90;99.90;;;;;;4939740;28;20438;-71
2021/05/12 00:41:23;;;;;;;29.70;24.60;;;13.90;99.90;;;;;;4937665;29;20500;-70
2021/05/12 00:43:49;;;;;;;29.38;26.27;;;13.90;99.90;;;;;;4936196;29;20418;-71
2021/05/12 00:46:14;;;;;;;28.33;25.23;;;13.90;99.90;;;;;;4937095;29;20205;-71
2021/05/12 00:48:40;;;;;;;31.13;26.13;;;13.80;99.90;;;;;;4935397;28;20190;-71
2021/05/12 00:51:06;;;;;;;31.07;26.00;;;13.80;99.90;;;;;;4937568;29;20695;-71
2021/05/12 00:53:32;;;;;;;28.37;25.10;;;13.70;99.90;;;;;;4937376;29;20186;-71
2021/05/12 00:55:58;;;;;;;31.17;25.60;;;13.70;99.90;;;;;;4936989;29;20450;-71
2021/05/12 00:58:23;;;;;;;29.70;25.03;;;13.60;99.90;;;;;;4935256;29;20948;-71
2021/05/12 01:00:49;;;;;;;28.30;25.03;;;13.70;99.90;;;;;;4936658;29;20178;-71
2021/05/12 01:03:14;;;;;;;28.27;25.33;;;13.70;99.90;;;;;;4935824;29;20167;-71
2021/05/12 01:05:49;;;;;;;31.23;24.73;;;13.60;99.90;;;;;;4937120;29;20236;-70
2021/05/12 01:08:16;;;;;;;26.97;23.70;;;13.60;99.90;;;;;;4936465;28;20181;-71
2021/05/12 01:10:41;;;;;;;25.30;22.43;;;13.60;99.90;;;;;;4935215;29;20430;-71
2021/05/12 01:13:08;;;;;;;28.30;23.03;;;13.60;99.90;;;;;;4951635;29;20757;-71
2021/05/12 01:15:33;;;;;;;29.10;23.80;;;13.60;99.90;;;;;;4934692;29;20305;-71
2021/05/12 01:18:22;;;;;;;29.73;23.40;;;13.60;99.90;;;;;;4951501;29;20553;-71
2021/05/12 01:20:55;;;;;;;28.27;23.37;;;13.50;99.90;;;;;;4927554;29;20269;-71
2021/05/12 01:23:24;;;;;;;29.17;25.83;;;13.60;99.90;;;;;;4935862;29;20421;-71
2021/05/12 01:25:52;;;;;;;29.33;25.90;;;13.60;99.90;;;;;;4936217;28;20206;-70
2021/05/12 01:28:20;;;;;;;27.40;24.40;;;13.60;99.90;;;;;;4936456;29;20832;-70
2021/05/12 01:31:13;;;;;;;25.17;22.43;;;13.60;99.90;;;;;;4934026;29;20444;-71
2021/05/12 01:33:40;;;;;;;31.47;24.23;;;13.60;99.90;;;;;;4903911;29;20482;-71
2021/05/12 01:36:06;;;;;;;27.33;23.00;;;13.60;99.90;;;;;;4917292;29;20513;-70
2021/05/12 01:38:33;;;;;;;29.80;23.83;;;13.60;99.90;;;;;;4917513;29;20847;-71
2021/05/12 01:41:01;;;;;;;26.97;23.50;;;13.60;99.90;;;;;;4917624;29;20913;-70
2021/05/12 01:43:26;;;;;;;31.20;23.20;;;13.50;99.90;;;;;;4918206;29;20435;-71
2021/05/12 01:45:52;;;;;;;27.83;23.87;;;13.50;99.90;;;;;;4917447;29;20431;-70
2021/05/12 01:48:18;;;;;;;26.87;23.03;;;13.30;99.90;;;;;;4917301;29;20167;-71
2021/05/12 01:50:44;;;;;;;28.10;24.53;;;13.20;99.90;;;;;;4917080;29;20287;-69
2021/05/12 01:53:11;;;;;;;27.90;24.17;;;13.30;99.90;;;;;;4918002;29;20929;-70
2021/05/12 01:55:37;;;;;;;28.33;24.47;;;13.30;99.90;;;;;;4917306;29;20467;-71
2021/05/12 01:58:03;;;;;;;32.73;25.03;;;13.20;99.90;;;;;;4917740;29;20576;-71
2021/05/12 02:00:32;;;;;;;30.60;24.60;;;13.20;99.90;;;;;;4917230;29;20411;-71
2021/05/12 02:02:58;;;;;;;30.20;24.53;;;13.20;99.90;;;;;;4920093;29;20473;-71
2021/05/12 02:05:26;;;;;;;28.20;25.10;;;13.20;99.90;;;;;;4935933;28;20450;-71
2021/05/12 02:07:58;;;;;;;29.17;25.17;;;13.20;99.90;;;;;;4937689;29;20426;-71
2021/05/12 02:10:24;;;;;;;28.10;24.53;;;13.20;99.90;;;;;;4951723;29;20430;-71
2021/05/12 02:12:50;;;;;;;29.73;24.57;;;13.20;99.90;;;;;;4936039;29;20418;-69
2021/05/12 02:15:17;;;;;;;27.63;24.53;;;13.10;99.90;;;;;;4937830;29;20473;-71
2021/05/12 02:17:43;;;;;;;28.47;24.60;;;13.10;99.90;;;;;;4940121;29;20446;-70
2021/05/12 02:20:15;;;;;;;30.13;24.87;;;13.10;99.90;;;;;;4939869;29;20429;-70
2021/05/12 02:22:40;;;;;;;28.90;24.20;;;13.10;99.90;;;;;;4939730;29;20174;-71
2021/05/12 02:25:07;;;;;;;33.97;26.90;;;13.10;99.90;;;;;;4952728;28;20457;-72
2021/05/12 02:27:33;;;;;;;29.60;25.50;;;13.00;99.90;;;;;;4954762;29;20333;-71
2021/05/12 02:30:01;;;;;;;29.63;25.00;;;13.00;99.90;;;;;;4939331;29;20504;-71
2021/05/12 02:32:31;;;;;;;31.40;26.07;;;13.00;99.90;;;;;;4954312;29;20620;-71
2021/05/12 02:34:58;;;;;;;29.87;25.30;;;13.00;99.90;;;;;;4938030;29;20450;-71
2021/05/12 02:37:24;;;;;;;27.23;24.10;;;12.90;99.90;;;;;;4939432;29;20445;-71
2021/05/12 02:39:50;;;;;;;29.23;24.30;;;12.90;99.90;;;;;;4938538;28;20966;-72
2021/05/12 02:42:16;;;;;;;28.23;25.13;;;12.90;99.90;;;;;;4939239;29;20505;-71
2021/05/12 02:44:42;;;;;;;33.93;25.97;;;13.00;99.90;;;;;;4939036;29;20190;-71
2021/05/12 02:47:08;;;;;;;31.80;25.63;;;12.90;99.90;;;;;;4923294;29;20194;-71
2021/05/12 02:49:33;;;;;;;29.20;25.40;;;12.80;99.90;;;;;;4920356;29;20410;-71
2021/05/12 02:51:59;;;;;;;28.83;25.53;;;12.90;99.90;;;;;;4920365;29;20258;-71
2021/05/12 02:54:25;;;;;;;29.50;25.63;;;12.80;99.90;;;;;;4919974;29;20206;-71
2021/05/12 02:56:50;;;;;;;28.37;25.27;;;12.70;99.90;;;;;;4921215;29;20199;-71
2021/05/12 02:59:16;;;;;;;31.10;27.75;;;12.80;99.90;;;;;;4919190;29;20509;-71
2021/05/12 03:01:41;;;;;;;29.80;26.60;;;12.80;99.90;;;;;;4920241;29;20263;-71
2021/05/12 03:04:07;;;;;;;30.10;25.27;;;12.80;99.90;;;;;;4919747;29;20191;-71
2021/05/12 03:06:33;;;;;;;29.20;25.10;;;12.80;99.90;;;;;;4935493;29;20622;-71
2021/05/12 03:08:59;;;;;;;31.03;25.13;;;12.80;99.90;;;;;;4920110;29;20230;-71
2021/05/12 03:11:24;;;;;;;36.00;26.17;;;12.80;99.90;;;;;;4921453;29;20171;-70
2021/05/12 03:13:50;;;;;;;30.03;26.83;;;12.90;99.90;;;;;;4920596;29;20190;-71
2021/05/12 03:16:16;;;;;;;30.20;24.03;;;12.80;99.90;;;;;;4920837;29;20218;-71
2021/05/12 03:18:41;;;;;;;27.17;24.27;;;12.80;99.90;;;;;;4922115;29;20509;-71
2021/05/12 03:21:07;;;;;;;31.63;26.20;;;12.70;99.90;;;;;;4919994;29;20175;-71
2021/05/12 03:23:33;;;;;;;27.30;24.40;;;12.70;99.90;;;;;;4919027;29;20199;-71
2021/05/12 03:25:58;;;;;;;29.20;25.60;;;12.60;99.90;;;;;;4918540;29;20198;-71
2021/05/12 03:28:24;;;;;;;31.37;24.53;;;12.60;99.90;;;;;;4918999;29;20175;-71
2021/05/12 03:30:50;;;;;;;29.70;25.00;;;12.60;99.90;;;;;;4919459;29;20577;-72
2021/05/12 03:33:15;;;;;;;31.00;26.33;;;12.60;99.90;;;;;;4919304;29;20633;-71
2021/05/12 03:35:41;;;;;;;34.87;25.67;;;12.60;99.90;;;;;;4920063;29;20219;-71
2021/05/12 03:38:09;;;;;;;31.10;26.00;;;12.60;99.90;;;;;;4919413;29;20214;-71
2021/05/12 03:40:35;;;;;;;29.23;24.60;;;12.60;99.90;;;;;;4920636;29;20445;-71
2021/05/12 03:43:01;;;;;;;33.43;25.90;;;12.40;99.90;;;;;;4919325;29;20419;-71
2021/05/12 03:45:28;;;;;;;34.13;27.00;;;12.50;99.90;;;;;;4919165;29;20431;-71
2021/05/12 03:47:54;;;;;;;29.63;26.42;;;12.50;99.90;;;;;;4930559;29;20439;-71
2021/05/12 03:50:22;;;;;;;36.03;26.17;;;12.50;99.90;;;;;;4927568;29;20286;-69
2021/05/12 03:52:47;;;;;;;33.50;25.37;;;12.50;99.90;;;;;;4918820;29;20419;-69
2021/05/12 03:55:15;;;;;;;30.17;26.90;;;12.50;99.90;;;;;;4918845;29;20498;-70
2021/05/12 03:57:42;;;;;;;27.00;24.10;;;12.50;99.90;;;;;;4919131;29;20194;-70
2021/05/12 04:00:09;;;;;;;30.60;25.03;;;12.50;99.90;;;;;;4920171;29;20419;-70
2021/05/12 04:02:34;;;;;;;29.43;24.30;;;12.50;99.90;;;;;;4919193;29;20411;-70
2021/05/12 04:05:00;;;;;;;29.70;25.17;;;12.50;99.90;;;;;;4919455;29;20840;-70
2021/05/12 04:07:27;;;;;;;29.00;24.43;;;12.40;99.90;;;;;;4919033;29;20182;-70
2021/05/12 04:09:52;;;;;;;32.23;26.10;;;12.40;99.90;;;;;;4919414;29;20234;-71
2021/05/12 04:12:18;;;;;;;33.60;26.43;;;12.50;99.90;;;;;;4930012;29;20473;-71
2021/05/12 04:14:43;;;;;;;28.20;25.30;;;12.50;99.90;;;;;;4937167;29;20240;-71
2021/05/12 04:17:09;;;;;;;27.23;24.20;;;12.40;99.90;;;;;;4938081;29;20197;-71
2021/05/12 04:19:34;;;;;;;28.03;24.30;;;12.40;99.90;;;;;;4938765;29;20174;-71
2021/05/12 04:22:00;;;;;;;30.73;25.50;;;12.50;99.90;;;;;;4929398;29;20193;-70
2021/05/12 04:24:25;;;;;;;31.03;25.47;;;12.50;99.90;;;;;;4918036;29;20281;-70
2021/05/12 04:26:52;;;;;;;28.57;25.30;;;12.50;99.90;;;;;;4933170;29;20189;-70
2021/05/12 04:29:17;;;;;;;31.50;26.00;;;12.50;99.90;;;;;;4918719;29;20563;-71
2021/05/12 04:31:43;;;;;;;31.10;25.30;;;12.50;99.90;;;;;;4919767;29;20419;-70
2021/05/12 04:34:08;;;;;;;32.03;25.00;;;12.60;99.90;;;;;;4918730;29;20520;-71
2021/05/12 04:36:34;;;;;;;29.63;25.03;;;12.60;99.90;;;;;;4918046;29;20211;-69
2021/05/12 04:39:01;;;;;;;30.63;25.53;;;12.60;99.90;;;;;;4918072;29;20186;-72
2021/05/12 04:41:26;;;;;;;27.70;22.53;;;12.60;99.90;;;;;;4918520;29;20391;-72
2021/05/12 04:43:54;;;;;;;30.40;23.40;;;12.70;99.90;;;;;;4932221;29;21432;-71
2021/05/12 04:46:21;;;;;;;31.70;24.40;;;12.70;99.90;;;;;;4932444;29;20691;-70
2021/05/12 04:48:47;;;;;;;30.73;23.40;;;12.70;99.90;;;;;;4917869;29;20419;-72
2021/05/12 04:51:12;;;;;;;26.73;21.63;;;12.70;99.90;;;;;;4935780;29;20946;-71
2021/05/12 04:53:38;;;;;;;28.77;21.83;;;12.70;99.90;;;;;;4930968;29;20195;-71
2021/05/12 04:56:03;;;;;;;28.60;22.10;;;12.80;99.90;;;;;;4924927;29;20202;-71
2021/05/12 04:58:30;;;;;;;29.47;24.27;;;12.70;99.90;;;;;;4936216;29;20213;-70
2021/05/12 05:00:56;;;;;;;27.27;22.60;;;12.70;99.90;;;;;;4936691;29;20225;-71
2021/05/12 05:03:22;;;;;;;26.43;22.37;;;12.70;99.90;;;;;;4935922;29;20472;-71
2021/05/12 05:05:47;;;;;;;29.43;23.97;;;12.80;99.90;;;;;;4919021;29;20204;-71
2021/05/12 05:08:14;;;;;;;28.37;23.97;;;12.80;99.90;;;;;;4917612;29;20234;-71
2021/05/12 05:10:40;;;;;;;32.00;23.90;;;12.80;99.90;;;;;;4917696;29;20258;-70
2021/05/12 05:13:05;;;;;;;28.90;22.90;;;12.80;99.90;;;;;;4917180;29;20443;-71
2021/05/12 05:15:31;;;;;;;29.10;22.30;;;12.80;99.90;;;;;;4918496;29;21007;-71
2021/05/12 05:17:57;;;;;;;27.17;22.03;;;12.70;99.90;;;;;;4931953;29;20637;-71
2021/05/12 05:20:24;;;;;;;25.23;21.10;;;12.80;99.90;;;;;;4936329;29;20433;-71
2021/05/12 05:22:50;;;;;;;22.77;20.07;;;12.90;99.90;;;;;;4934926;29;20190;-71
2021/05/12 05:25:16;;;;;;;20.67;18.07;;;12.90;99.90;;;;;;4929473;29;20467;-71
2021/05/12 05:27:41;;;;;;;21.70;19.27;;;13.00;99.90;;;;;;4922307;29;20214;-71
2021/05/12 05:30:07;;;;;;;22.00;19.60;;;13.00;99.90;;;;;;4923776;29;20183;-71
2021/05/12 05:32:33;;;;;;;25.05;21.45;;;13.10;99.90;;;;;;4922089;29;20440;-71
2021/05/12 05:34:58;;;;;;;25.70;19.70;;;13.20;99.90;;;;;;4931548;29;20260;-71
2021/05/12 05:37:24;;;;;;;23.80;18.70;;;13.20;99.90;;;;;;4926564;29;20291;-72
2021/05/12 05:39:55;;;;;;;20.50;18.27;;;13.30;99.90;;;;;;4933634;29;20186;-71
2021/05/12 05:42:21;;;;;;;22.33;17.83;;;13.50;99.90;;;;;;4928724;29;20182;-71
2021/05/12 05:44:48;;;;;;;22.33;18.90;;;13.50;99.90;;;;;;4915562;29;20457;-71
2021/05/12 05:47:14;;;;;;;19.77;17.13;;;13.60;99.90;;;;;;4924945;29;20445;-71
2021/05/12 05:49:39;;;;;;;18.33;16.43;;;13.60;99.90;;;;;;4925693;29;20646;-71
2021/05/12 05:52:05;;;;;;;22.73;16.60;;;13.60;99.90;;;;;;4930940;29;20473;-69
2021/05/12 05:54:31;;;;;;;19.80;17.70;;;13.70;99.90;;;;;;4927573;29;20572;-71
2021/05/12 05:57:03;;;;;;;20.70;16.43;;;13.70;99.90;;;;;;4930739;29;20206;-71
2021/05/12 05:59:29;;;;;;;18.83;16.80;;;13.70;99.90;;;;;;4926817;29;20274;-71
2021/05/12 06:01:56;;;;;;;20.10;15.97;;;13.70;99.90;;;;;;4917823;29;20960;-70
2021/05/12 06:04:23;;;;;;;22.10;18.20;;;13.70;99.90;;;;;;4926881;29;20194;-70
2021/05/12 06:06:49;;;;;;;24.87;17.10;;;13.70;99.90;;;;;;4917676;29;20418;-70
2021/05/12 06:09:15;;;;;;;21.27;16.53;;;13.80;99.90;;;;;;4931835;29;20432;-70
2021/05/12 06:11:40;;;;;;;20.33;16.40;;;13.80;99.90;;;;;;4931650;29;20442;-71
2021/05/12 06:14:06;;;;;;;20.63;16.80;;;13.70;99.90;;;;;;4934115;29;20253;-70
2021/05/12 06:16:31;;;;;;;23.00;19.07;;;13.60;99.90;;;;;;4935236;29;20211;-71
2021/05/12 06:18:57;;;;;;;24.37;18.20;;;13.70;99.90;;;;;;4936033;29;20703;-70
2021/05/12 06:21:25;;;;;;;18.83;16.90;;;13.70;99.90;;;;;;4935740;29;20186;-71
2021/05/12 06:23:50;;;;;;;19.77;17.77;;;13.70;99.90;;;;;;4935219;29;20273;-70
2021/05/12 06:26:17;;;;;;;21.10;16.23;;;13.80;99.90;;;;;;4918175;29;20485;-70
2021/05/12 06:28:44;;;;;;;19.67;16.87;;;13.90;99.90;;;;;;4916934;29;20279;-70
2021/05/12 06:31:16;;;;;;;22.53;16.37;;;14.00;99.90;;;;;;4916890;29;20419;-70
2021/05/12 06:33:45;;;;;;;20.83;15.90;;;14.00;99.90;;;;;;4931844;29;20415;-71
2021/05/12 06:36:11;;;;;;;22.03;17.80;;;14.00;99.90;;;;;;4932895;29;20538;-70
2021/05/12 06:38:36;;;;;;;20.70;16.03;;;14.10;99.90;;;;;;4931666;29;20558;-73
2021/05/12 06:41:03;;;;;;;18.93;16.57;;;14.10;99.90;;;;;;4931190;29;20266;-71
2021/05/12 06:43:28;;;;;;;17.80;16.00;;;14.20;99.90;;;;;;4938239;29;20245;-71
2021/05/12 06:45:54;;;;;;;15.97;14.40;;;14.30;99.90;;;;;;4928248;29;20455;-70
2021/05/12 06:48:20;;;;;;;18.13;14.73;;;14.40;99.90;;;;;;4927019;29;20182;-71
2021/05/12 06:50:46;;;;;;;20.50;15.00;;;14.50;99.90;;;;;;4930958;29;20248;-70
2021/05/12 06:53:12;;;;;;;16.13;14.53;;;14.50;99.90;;;;;;4931321;29;20194;-71
2021/05/12 06:55:38;;;;;;;15.83;14.13;;;14.50;99.90;;;;;;4931905;29;20512;-70
2021/05/12 06:58:07;;;;;;;17.77;14.57;;;14.60;99.90;;;;;;4931766;29;20584;-71
2021/05/12 07:00:33;;;;;;;19.30;14.40;;;14.60;99.90;;;;;;4933548;29;20445;-71
2021/05/12 07:02:59;;;;;;;15.40;13.70;;;14.60;99.90;;;;;;4935444;29;20433;-71
2021/05/12 07:05:25;;;;;;;15.07;12.80;;;14.70;99.90;;;;;;4924041;29;20797;-71
2021/05/12 07:07:51;;;;;;;19.50;13.40;;;14.80;99.90;;;;;;4920319;29;20183;-71
2021/05/12 07:10:17;;;;;;;16.73;12.93;;;14.80;99.90;;;;;;4919062;29;20218;-70
2021/05/12 07:12:43;;;;;;;18.73;13.50;;;14.90;99.90;;;;;;4919973;29;20648;-70
2021/05/12 07:15:10;;;;;;;14.30;12.70;;;15.10;99.90;;;;;;4920679;29;20561;-71
2021/05/12 07:17:36;;;;;;;16.40;13.60;;;15.20;99.90;;;;;;4918765;29;20449;-71
2021/05/12 07:20:04;;;;;;;15.43;12.67;;;15.30;99.90;;;;;;4919927;29;20178;-71
2021/05/12 07:22:29;;;;;;;15.43;12.93;;;15.30;99.90;;;;;;4919608;29;20175;-71
2021/05/12 07:24:55;;;;;;;16.40;12.77;;;15.30;99.90;;;;;;4926405;29;20460;-71
2021/05/12 07:27:22;;;;;;;18.77;12.03;;;15.30;99.90;;;;;;4937458;29;20206;-71
2021/05/12 07:29:49;;;;;;;14.23;12.60;;;15.20;99.90;;;;;;4938648;29;20546;-71
2021/05/12 07:32:15;;;;;;;17.50;12.73;;;15.10;99.90;;;;;;4937840;29;20425;-71
2021/05/12 07:34:40;;;;;;;16.80;11.90;;;15.00;99.90;;;;;;4937798;29;20442;-71
2021/05/12 07:37:06;;;;;;;13.73;12.17;;;15.00;99.90;;;;;;4924759;29;20459;-71
2021/05/12 07:39:32;;;;;;;14.60;13.17;;;14.90;99.90;;;;;;4931124;29;20182;-72
2021/05/12 07:42:03;;;;;;;14.10;12.20;;;14.90;99.90;;;;;;4935050;29;20522;-71
2021/05/12 07:44:29;;;;;;;15.07;12.40;;;14.80;99.90;;;;;;4933451;29;20469;-71
2021/05/12 07:46:55;;;;;;;19.20;12.57;;;14.80;99.90;;;;;;4932770;29;20764;-71
2021/05/12 07:49:21;;;;;;;14.60;13.10;;;14.80;99.90;;;;;;4934513;29;20189;-71
2021/05/12 07:51:46;;;;;;;15.90;12.03;;;14.80;99.90;;;;;;4933889;29;20457;-71
2021/05/12 07:54:12;;;;;;;15.00;12.90;;;14.80;99.90;;;;;;4933331;29;20245;-71
2021/05/12 07:56:37;;;;;;;13.93;12.53;;;14.90;99.90;;;;;;4933059;29;20194;-70
2021/05/12 07:59:03;;;;;;;20.10;12.70;;;15.10;99.90;;;;;;4944239;29;20574;-71
2021/05/12 08:01:32;;;;;;;13.43;12.00;;;15.30;99.90;;;;;;4934065;29;20205;-71
2021/05/12 08:03:58;;;;;;;14.97;12.40;;;15.60;99.90;;;;;;4952161;29;20185;-70
2021/05/12 08:06:23;;;;;;;13.27;12.03;;;15.60;99.90;;;;;;4940056;29;20525;-70
2021/05/12 08:08:49;;;;;;;16.17;14.20;;;15.60;99.90;;;;;;4932635;29;20560;-71
2021/05/12 08:11:15;;;;;;;13.23;11.90;;;15.60;99.90;;;;;;4934460;29;20213;-70
2021/05/12 08:13:41;;;;;;;13.93;12.52;;;15.50;99.90;;;;;;4933290;29;20429;-71
2021/05/12 08:16:06;;;;;;;12.80;11.53;;;15.40;99.90;;;;;;4933627;29;20265;-70
2021/05/12 08:18:32;;;;;;;13.57;12.00;;;15.50;99.90;;;;;;4929833;29;20539;-70
2021/05/12 08:20:57;;;;;;;13.87;12.20;;;15.60;99.90;;;;;;4916146;29;20179;-71
2021/05/12 08:23:24;;;;;;;18.73;13.03;;;15.80;99.90;;;;;;4929650;29;20277;-70
2021/05/12 08:25:50;;;;;;;16.23;11.07;;;15.90;99.90;;;;;;4933305;29;20687;-70
2021/05/12 08:28:17;;;;;;;13.53;12.07;;;15.90;99.90;;;;;;4933776;29;20450;-70
2021/05/12 08:30:47;;;;;;;13.73;12.10;;;16.00;99.90;;;;;;4938948;29;20430;-69
2021/05/12 08:33:14;;;;;;;11.87;10.77;;;16.20;99.90;;;;;;4933058;29;20430;-71
2021/05/12 08:35:42;;;;;;;12.40;11.20;;;16.40;99.90;;;;;;4932931;29;20983;-71
2021/05/12 08:38:09;;;;;;;14.57;10.30;;;16.60;99.90;;;;;;4931375;29;20564;-71
2021/05/12 08:40:35;;;;;;;16.63;10.47;;;16.70;99.90;;;;;;4934075;29;20458;-72
2021/05/12 08:43:03;;;;;;;15.73;10.80;;;16.80;99.90;;;;;;4934179;29;20924;-71
2021/05/12 08:45:29;;;;;;;14.50;10.70;;;16.90;99.90;;;;;;4934344;29;20445;-72
2021/05/12 08:47:55;;;;;;;11.87;9.87;;;17.10;99.90;;;;;;4915035;29;20545;-71
2021/05/12 08:50:23;;;;;;;18.07;11.00;;;17.20;99.90;;;;;;4922936;29;20418;-70
2021/05/12 08:52:49;;;;;;;11.20;10.00;;;17.30;99.90;;;;;;4933971;29;20496;-71
2021/05/12 08:55:16;;;;;;;12.47;10.10;;;17.30;99.90;;;;;;4932939;29;20450;-72
2021/05/12 08:57:41;;;;;;;9.63;8.57;;;17.50;99.90;;;;;;4931788;29;20458;-72
2021/05/12 09:00:08;;;;;;;14.60;10.77;;;17.70;99.90;;;;;;4925917;29;20542;-71
2021/05/12 09:02:34;;;;;;;9.37;8.57;;;17.70;99.90;;;;;;4933454;29;20198;-72
2021/05/12 09:04:59;;;;;;;12.87;9.20;;;17.80;99.90;;;;;;4930130;29;20469;-72
2021/05/12 09:07:25;;;;;;;11.70;8.90;;;17.60;99.70;;;;;;4926193;29;20340;-72
2021/05/12 09:09:51;;;;;;;18.33;9.67;;;17.50;99.50;;;;;;4922671;29;20816;-71
2021/05/12 09:12:17;;;;;;;25.73;11.63;;;17.30;99.90;;;;;;4915503;29;20942;-72
2021/05/12 09:14:42;;;;;;;12.83;9.30;;;17.30;99.90;;;;;;4915235;29;20195;-72
2021/05/12 09:17:08;;;;;;;11.67;8.20;;;17.50;99.90;;;;;;4914300;29;20470;-72
2021/05/12 09:19:34;;;;;;;9.03;7.70;;;17.70;99.90;;;;;;4914691;29;20175;-73
2021/05/12 09:22:06;;;;;;;9.23;7.73;;;17.80;99.20;;;;;;4931050;29;20241;-73
2021/05/12 09:24:34;;;;;;;13.07;8.10;;;17.80;98.90;;;;;;4926382;29;20442;-73
2021/05/12 09:27:03;;;;;;;9.20;8.10;;;18.00;98.90;;;;;;4914568;29;20506;-72
2021/05/12 09:29:38;;;;;;;8.40;7.57;;;18.10;98.60;;;;;;4915067;29;20421;-72
2021/05/12 09:32:09;;;;;;;7.90;7.10;;;18.20;98.30;;;;;;4925854;29;20442;-71
2021/05/12 09:35:00;;;;;;;7.17;6.47;;;18.10;97.90;;;;;;4932947;29;20434;-71
2021/05/12 09:37:31;;;;;;;8.60;7.70;;;18.00;97.90;;;;;;4931843;29;20462;-71
2021/05/12 09:40:04;;;;;;;8.17;7.23;;;17.90;98.20;;;;;;4932566;29;20544;-72
2021/05/12 09:42:30;;;;;;;8.97;8.00;;;17.80;98.40;;;;;;4922774;29;21131;-71
2021/05/12 09:45:08;;;;;;;9.60;8.80;;;17.80;98.40;;;;;;4928955;29;20449;-71
2021/05/12 09:47:33;;;;;;;10.20;9.20;;;17.70;98.20;;;;;;4933425;28;20210;-71
2021/05/12 09:50:06;;;;;;;10.90;9.80;;;17.60;98.40;;;;;;4927608;29;20442;-72
2021/05/12 09:52:32;;;;;;;8.77;8.10;;;17.50;98.40;;;;;;4920153;29;20194;-71
2021/05/12 09:55:02;;;;;;;9.17;8.27;;;17.60;98.60;;;;;;4918138;29;20525;-72
2021/05/12 09:57:28;;;;;;;10.70;9.23;;;17.70;98.40;;;;;;4932437;29;20214;-72
2021/05/12 09:59:54;;;;;;;9.77;8.87;;;17.80;98.50;;;;;;4917607;29;20727;-70
2021/05/12 10:02:20;;;;;;;9.10;8.30;;;18.00;98.70;;;;;;4917654;29;20911;-70
2021/05/12 10:04:47;;;;;;;10.80;9.80;;;18.20;98.60;;;;;;4918286;29;20199;-71
2021/05/12 10:07:16;;;;;;;10.00;8.90;;;18.10;97.30;;;;;;4919235;29;20431;-71
2021/05/12 10:09:43;;;;;;;7.40;6.70;;;18.00;97.60;;;;;;4919706;29;20415;-71
2021/05/12 10:12:16;;;;;;;6.63;4.97;;;17.60;95.90;;;;;;4919894;29;20894;-71
2021/05/12 10:15:01;;;;;;;5.93;5.40;;;17.50;95.30;;;;;;4919342;29;20995;-71
2021/05/12 10:17:28;;;;;;;7.53;6.83;;;17.40;95.60;;;;;;4916128;29;20516;-72
2021/05/12 10:19:55;;;;;;;8.67;7.80;;;17.30;96.70;;;;;;4918007;29;20407;-72
2021/05/12 10:22:21;;;;;;;6.90;6.20;;;17.30;97.00;;;;;;4917264;29;20600;-72
2021/05/12 10:24:49;;;;;;;7.03;6.53;;;17.30;96.20;;;;;;4924435;29;20446;-72
2021/05/12 10:27:24;;;;;;;6.20;5.60;;;17.40;96.50;;;;;;4936781;29;20910;-72
2021/05/12 10:29:51;;;;;;;6.90;5.13;;;17.30;95.50;;;;;;4936503;29;20405;-72
2021/05/12 10:32:35;;;;;;;6.17;5.60;;;17.30;95.80;;;;;;4936845;29;20442;-71
2021/05/12 10:35:12;;;;;;;7.78;6.68;;;17.30;96.50;;;;;;4934701;29;20981;-72
2021/05/12 10:37:39;;;;;;;8.00;5.80;;;17.10;97.00;;;;;;4940181;29;20597;-71
2021/05/12 10:40:14;;;;;;;11.50;7.27;;;17.20;97.30;;;;;;4938738;29;20430;-72
2021/05/12 10:42:44;;;;;;;8.60;5.70;;;17.30;97.50;;;;;;4954616;29;20422;-73
2021/05/12 10:45:10;;;;;;;6.17;5.67;;;17.30;96.40;;;;;;4938458;29;20516;-72
2021/05/12 10:47:39;;;;;;;6.80;6.13;;;17.20;96.00;;;;;;4939628;29;21036;-72
2021/05/12 10:50:05;;;;;;;7.07;5.70;;;17.10;95.10;;;;;;4954591;29;20433;-71
2021/05/12 10:52:31;;;;;;;5.83;5.07;;;16.80;95.40;;;;;;4940214;29;20413;-72
2021/05/12 10:54:56;;;;;;;7.13;5.40;;;16.70;95.00;;;;;;4940206;29;20437;-71
2021/05/12 10:57:37;;;;;;;5.87;5.07;;;16.70;95.00;;;;;;4938153;29;20198;-71
2021/05/12 11:00:04;;;;;;;7.03;5.03;;;16.60;95.20;;;;;;4939616;29;20178;-72
2021/05/12 11:03:02;;;;;;;6.57;5.40;;;16.60;95.30;;;;;;4938566;29;21169;-72
2021/05/12 11:05:42;;;;;;;6.37;5.53;;;16.70;95.40;;;;;;4942898;29;20430;-70
2021/05/12 11:08:20;;;;;;;8.20;7.10;;;16.90;95.90;;;;;;4938978;29;20422;-71
2021/05/12 11:11:02;;;;;;;6.23;5.00;;;17.00;95.70;;;;;;4939596;29;20409;-71
2021/05/12 11:13:33;;;;;;;5.20;4.50;;;17.40;95.60;;;;;;4939341;28;20783;-72
2021/05/12 11:16:03;;;;;;;7.30;4.40;;;17.60;94.30;;;;;;4939044;29;20461;-71
2021/05/12 11:18:34;;;;;;;5.57;5.07;;;17.80;93.90;;;;;;4938074;29;20549;-72
2021/05/12 11:21:38;;;;;;;6.15;5.55;;;17.90;92.90;;;;;;4938882;29;20414;-71
2021/05/12 11:24:07;;;;;;;5.73;5.23;;;17.70;94.30;;;;;;4860641;29;20260;-71
2021/05/12 11:32:00;;;;;;;6.90;6.33;;;17.50;95.40;;;;;;4852340;29;20193;-69
2021/05/12 11:34:26;;;;;;;6.93;6.03;;;17.50;95.40;;;;;;4843134;29;20511;-71
2021/05/12 11:37:05;;;;;;;7.43;5.83;;;17.60;94.80;;;;;;4843540;29;20410;-72
2021/05/12 11:39:30;;;;;;;8.83;5.57;;;17.80;94.90;;;;;;4844826;29;20490;-72
2021/05/12 11:41:56;;;;;;;7.10;6.40;;;17.90;94.30;;;;;;4842958;29;20431;-72
2021/05/12 11:44:22;;;;;;;7.03;6.20;;;17.90;93.40;;;;;;4842881;29;20229;-71
2021/05/12 11:46:47;;;;;;;7.00;5.77;;;17.90;93.40;;;;;;4841950;29;20202;-71
2021/05/12 11:49:14;;;;;;;8.70;5.90;;;17.90;93.60;;;;;;4844268;29;20182;-71
2021/05/12 11:51:42;;;;;;;7.30;6.10;;;17.90;93.40;;;;;;4843192;29;20279;-72
2021/05/12 11:54:25;;;;;;;5.50;5.00;;;17.90;91.70;;;;;;4842542;29;20438;-71
2021/05/12 11:56:54;;;;;;;9.93;5.57;;;17.80;92.10;;;;;;4837229;29;20434;-70
2021/05/12 11:59:25;;;;;;;5.00;4.60;;;17.90;92.40;;;;;;4853178;29;20446;-71
2021/05/12 12:01:57;;;;;;;8.03;5.40;;;18.10;92.20;;;;;;4926568;29;20434;-72
2021/05/12 12:04:29;;;;;;;5.03;4.60;;;18.00;91.80;;;;;;4938624;29;20524;-71
2021/05/12 12:06:54;;;;;;;10.30;6.23;;;17.90;91.30;;;;;;4953013;29;20450;-71
2021/05/12 12:09:21;;;;;;;11.33;7.13;;;17.70;91.60;;;;;;4953222;29;20441;-70
2021/05/12 12:11:48;;;;;;;6.00;5.40;;;17.40;92.90;;;;;;4928401;29;20187;-71
2021/05/12 12:14:14;;;;;;;6.33;5.70;;;17.50;93.30;;;;;;4919050;29;20525;-72
2021/05/12 12:16:42;;;;;;;9.53;5.70;;;17.60;92.60;;;;;;4919961;29;20434;-71
2021/05/12 12:19:07;;;;;;;6.40;5.80;;;17.60;92.00;;;;;;4926980;29;20792;-71
2021/05/12 12:21:33;;;;;;;6.23;5.67;;;17.80;91.30;;;;;;4933770;29;20435;-71
2021/05/12 12:24:29;;;;;;;7.80;4.67;;;17.80;91.50;;;;;;4920015;29;20238;-71
2021/05/12 12:27:04;;;;;;;6.40;5.80;;;18.10;90.50;;;;;;4860592;29;20513;-72
2021/05/12 12:29:31;;;;;;;6.53;5.70;;;18.10;90.20;;;;;;4860507;29;20564;-72
2021/05/12 12:32:06;;;;;;;6.50;5.93;;;18.20;90.30;;;;;;4856737;29;20485;-72
2021/05/12 12:34:34;;;;;;;7.60;5.67;;;18.20;90.30;;;;;;4849004;29;20542;-72
2021/05/12 12:37:03;;;;;;;7.90;5.90;;;18.20;90.30;;;;;;4848658;29;20433;-73
2021/05/12 12:39:38;;;;;;;5.60;5.10;;;18.30;90.80;;;;;;4851431;29;20576;-72
2021/05/12 12:42:04;;;;;;;6.83;5.37;;;18.40;91.30;;;;;;4852949;29;20444;-71